sensor_id;sensor_type;location;lat;lon;timestamp;temperature;humidity
33023;DHT22;19390;51.460;5.710;2022-07-15T00:00:17;13.90;99.90
33023;DHT22;19390;51.460;5.710;2022-07-15T00:02:42;13.80;99.90
33023;DHT22;19390;51.460;5.710;2022-07-15T00:05:08;13.70;99.90
33023;DHT22;19390;51.460;5.710;2022-07-15T00:07:35;13.70;99.90
33023;DHT22;19390;51.460;5.710;2022-07-15T00:10:01;13.80;99.90
33023;DHT22;19390;51.460;5.710;2022-07-15T00:12:43;13.70;99.90
33023;DHT22;19390;51.460;5.710;2022-07-15T00:15:09;13.80;99.90
33023;DHT22;19390;51.460;5.710;2022-07-15T00:17:35;13.70;99.90
33023;DHT22;19390;51.460;5.710;2022-07-15T00:20:01;13.60;99.90
33023;DHT22;19390;51.460;5.710;2022-07-15T00:22:26;13.50;99.90
33023;DHT22;19390;51.460;5.710;2022-07-15T00:24:52;13.50;99.90
33023;DHT22;19390;51.460;5.710;2022-07-15T00:27:18;13.50;99.90
33023;DHT22;19390;51.460;5.710;2022-07-15T00:29:44;13.40;99.90
33023;DHT22;19390;51.460;5.710;2022-07-15T00:32:10;13.40;99.90
33023;DHT22;19390;51.460;5.710;2022-07-15T00:34:35;13.30;99.90
33023;DHT22;19390;51.460;5.710;2022-07-15T00:37:01;13.30;99.90
33023;DHT22;19390;51.460;5.710;2022-07-15T00:39:27;13.20;99.90
33023;DHT22;19390;51.460;5.710;2022-07-15T00:41:53;13.20;99.90
33023;DHT22;19390;51.460;5.710;2022-07-15T00:44:18;13.20;99.90
33023;DHT22;19390;51.460;5.710;2022-07-15T00:46:44;13.20;99.90
33023;DHT22;19390;51.460;5.710;2022-07-15T00:49:10;13.10;99.90
33023;DHT22;19390;51.460;5.710;2022-07-15T00:51:38;13.10;99.90
33023;DHT22;19390;51.460;5.710;2022-07-15T00:54:05;13.10;99.90
33023;DHT22;19390;51.460;5.710;2022-07-15T00:56:40;13.10;99.90
33023;DHT22;19390;51.460;5.710;2022-07-15T00:59:07;13.10;99.90
33023;DHT22;19390;51.460;5.710;2022-07-15T01:01:34;13.00;99.90
33023;DHT22;19390;51.460;5.710;2022-07-15T01:04:04;13.00;99.90
33023;DHT22;19390;51.460;5.710;2022-07-15T01:06:31;13.00;99.90
33023;DHT22;19390;51.460;5.710;2022-07-15T01:08:57;12.90;99.90
33023;DHT22;19390;51.460;5.710;2022-07-15T01:11:23;12.80;99.90
33023;DHT22;19390;51.460;5.710;2022-07-15T01:13:48;12.80;99.90
33023;DHT22;19390;51.460;5.710;2022-07-15T01:16:14;12.70;99.90
33023;DHT22;19390;51.460;5.710;2022-07-15T01:18:40;12.70;99.90
33023;DHT22;19390;51.460;5.710;2022-07-15T01:21:06;12.60;99.90
33023;DHT22;19390;51.460;5.710;2022-07-15T01:23:31;12.60;99.90
33023;DHT22;19390;51.460;5.710;2022-07-15T01:25:57;12.60;99.90
33023;DHT22;19390;51.460;5.710;2022-07-15T01:28:23;12.60;99.90
33023;DHT22;19390;51.460;5.710;2022-07-15T01:30:48;12.60;99.90
33023;DHT22;19390;51.460;5.710;2022-07-15T01:33:15;12.60;99.90
33023;DHT22;19390;51.460;5.710;2022-07-15T01:35:41;12.50;99.90
33023;DHT22;19390;51.460;5.710;2022-07-15T01:38:08;12.50;99.90
33023;DHT22;19390;51.460;5.710;2022-07-15T01:40:34;12.30;99.90
33023;DHT22;19390;51.460;5.710;2022-07-15T01:42:59;12.40;99.90
33023;DHT22;19390;51.460;5.710;2022-07-15T01:45:25;12.40;99.90
33023;DHT22;19390;51.460;5.710;2022-07-15T01:47:50;12.40;99.90
33023;DHT22;19390;51.460;5.710;2022-07-15T01:50:18;12.50;99.90
33023;DHT22;19390;51.460;5.710;2022-07-15T01:52:44;12.40;99.90
33023;DHT22;19390;51.460;5.710;2022-07-15T01:55:09;12.40;99.90
33023;DHT22;19390;51.460;5.710;2022-07-15T01:57:35;12.40;99.90
33023;DHT22;19390;51.460;5.710;2022-07-15T02:00:01;12.20;99.90
33023;DHT22;19390;51.460;5.710;2022-07-15T02:02:27;12.30;99.90
33023;DHT22;19390;51.460;5.710;2022-07-15T02:04:52;12.20;99.90
33023;DHT22;19390;51.460;5.710;2022-07-15T02:07:18;12.30;99.90
33023;DHT22;19390;51.460;5.710;2022-07-15T02:09:44;12.20;99.90
33023;DHT22;19390;51.460;5.710;2022-07-15T02:12:09;12.20;99.90
33023;DHT22;19390;51.460;5.710;2022-07-15T02:14:35;12.10;99.90
33023;DHT22;19390;51.460;5.710;2022-07-15T02:17:01;12.20;99.90
33023;DHT22;19390;51.460;5.710;2022-07-15T02:19:27;12.20;99.90
33023;DHT22;19390;51.460;5.710;2022-07-15T02:21:53;12.10;99.90
33023;DHT22;19390;51.460;5.710;2022-07-15T02:24:19;12.20;99.90
33023;DHT22;19390;51.460;5.710;2022-07-15T02:26:47;12.20;99.90
33023;DHT22;19390;51.460;5.710;2022-07-15T02:29:14;12.10;99.90
33023;DHT22;19390;51.460;5.710;2022-07-15T02:31:40;12.10;99.90
33023;DHT22;19390;51.460;5.710;2022-07-15T02:34:07;12.10;99.90
33023;DHT22;19390;51.460;5.710;2022-07-15T02:36:32;12.10;99.90
33023;DHT22;19390;51.460;5.710;2022-07-15T02:38:58;12.10;99.90
33023;DHT22;19390;51.460;5.710;2022-07-15T02:41:24;12.00;99.90
33023;DHT22;19390;51.460;5.710;2022-07-15T02:43:50;12.00;99.90
33023;DHT22;19390;51.460;5.710;2022-07-15T02:46:16;12.00;99.90
33023;DHT22;19390;51.460;5.710;2022-07-15T02:48:42;12.00;99.90
33023;DHT22;19390;51.460;5.710;2022-07-15T02:51:08;11.90;99.90
33023;DHT22;19390;51.460;5.710;2022-07-15T02:53:34;11.90;99.90
33023;DHT22;19390;51.460;5.710;2022-07-15T02:56:00;11.90;99.90
33023;DHT22;19390;51.460;5.710;2022-07-15T02:58:27;11.80;99.90
33023;DHT22;19390;51.460;5.710;2022-07-15T03:00:53;11.80;99.90
33023;DHT22;19390;51.460;5.710;2022-07-15T03:03:18;11.80;99.90
33023;DHT22;19390;51.460;5.710;2022-07-15T03:05:44;11.80;99.90
33023;DHT22;19390;51.460;5.710;2022-07-15T03:08:10;11.80;99.90
33023;DHT22;19390;51.460;5.710;2022-07-15T03:10:36;11.80;99.90
33023;DHT22;19390;51.460;5.710;2022-07-15T03:13:01;11.70;99.90
33023;DHT22;19390;51.460;5.710;2022-07-15T03:15:27;11.80;99.90
33023;DHT22;19390;51.460;5.710;2022-07-15T03:17:53;11.60;99.90
33023;DHT22;19390;51.460;5.710;2022-07-15T03:20:19;11.70;99.90
33023;DHT22;19390;51.460;5.710;2022-07-15T03:22:44;11.80;99.90
33023;DHT22;19390;51.460;5.710;2022-07-15T03:25:10;11.60;99.90
33023;DHT22;19390;51.460;5.710;2022-07-15T03:27:36;11.60;99.90
33023;DHT22;19390;51.460;5.710;2022-07-15T03:30:02;11.70;99.90
33023;DHT22;19390;51.460;5.710;2022-07-15T03:32:28;11.70;99.90
33023;DHT22;19390;51.460;5.710;2022-07-15T03:34:53;11.60;99.90
33023;DHT22;19390;51.460;5.710;2022-07-15T03:37:22;11.50;99.90
33023;DHT22;19390;51.460;5.710;2022-07-15T03:39:48;11.60;99.90
33023;DHT22;19390;51.460;5.710;2022-07-15T03:42:13;11.60;99.90
33023;DHT22;19390;51.460;5.710;2022-07-15T03:44:39;11.70;99.90
33023;DHT22;19390;51.460;5.710;2022-07-15T03:47:04;11.70;99.90
33023;DHT22;19390;51.460;5.710;2022-07-15T03:49:30;11.60;99.90
33023;DHT22;19390;51.460;5.710;2022-07-15T03:51:56;11.70;99.90
33023;DHT22;19390;51.460;5.710;2022-07-15T03:54:21;11.80;99.90
33023;DHT22;19390;51.460;5.710;2022-07-15T03:56:47;11.80;99.90
33023;DHT22;19390;51.460;5.710;2022-07-15T03:59:17;11.80;99.90
33023;DHT22;19390;51.460;5.710;2022-07-15T04:01:46;11.80;99.90
33023;DHT22;19390;51.460;5.710;2022-07-15T04:04:11;12.00;99.90
33023;DHT22;19390;51.460;5.710;2022-07-15T04:06:37;12.10;99.90
33023;DHT22;19390;51.460;5.710;2022-07-15T04:09:02;12.20;99.90
33023;DHT22;19390;51.460;5.710;2022-07-15T04:11:28;12.30;99.90
33023;DHT22;19390;51.460;5.710;2022-07-15T04:13:54;12.40;99.90
33023;DHT22;19390;51.460;5.710;2022-07-15T04:16:19;12.40;99.90
33023;DHT22;19390;51.460;5.710;2022-07-15T04:18:45;12.50;99.90
33023;DHT22;19390;51.460;5.710;2022-07-15T04:21:11;12.60;99.90
33023;DHT22;19390;51.460;5.710;2022-07-15T04:23:36;12.70;99.90
33023;DHT22;19390;51.460;5.710;2022-07-15T04:26:02;12.80;99.90
33023;DHT22;19390;51.460;5.710;2022-07-15T04:28:28;13.00;99.90
33023;DHT22;19390;51.460;5.710;2022-07-15T04:30:54;13.10;99.90
33023;DHT22;19390;51.460;5.710;2022-07-15T04:33:20;13.20;99.90
33023;DHT22;19390;51.460;5.710;2022-07-15T04:35:46;13.30;99.90
33023;DHT22;19390;51.460;5.710;2022-07-15T04:38:12;13.40;99.90
33023;DHT22;19390;51.460;5.710;2022-07-15T04:40:38;13.50;99.90
33023;DHT22;19390;51.460;5.710;2022-07-15T04:43:05;13.60;99.90
33023;DHT22;19390;51.460;5.710;2022-07-15T04:45:31;13.80;99.90
33023;DHT22;19390;51.460;5.710;2022-07-15T04:47:57;13.90;99.90
33023;DHT22;19390;51.460;5.710;2022-07-15T04:50:23;14.00;99.90
33023;DHT22;19390;51.460;5.710;2022-07-15T04:53:07;14.20;99.90
33023;DHT22;19390;51.460;5.710;2022-07-15T04:55:32;14.30;99.90
33023;DHT22;19390;51.460;5.710;2022-07-15T04:57:59;14.50;99.90
33023;DHT22;19390;51.460;5.710;2022-07-15T05:00:24;14.60;99.90
33023;DHT22;19390;51.460;5.710;2022-07-15T05:02:50;14.80;99.90
33023;DHT22;19390;51.460;5.710;2022-07-15T05:05:16;14.80;99.90
33023;DHT22;19390;51.460;5.710;2022-07-15T05:07:41;15.00;99.90
33023;DHT22;19390;51.460;5.710;2022-07-15T05:10:08;15.10;99.90
33023;DHT22;19390;51.460;5.710;2022-07-15T05:12:34;15.70;99.90
33023;DHT22;19390;51.460;5.710;2022-07-15T05:15:00;16.00;99.90
33023;DHT22;19390;51.460;5.710;2022-07-15T05:17:26;15.80;99.90
33023;DHT22;19390;51.460;5.710;2022-07-15T05:19:52;15.90;99.90
33023;DHT22;19390;51.460;5.710;2022-07-15T05:22:18;16.20;99.90
33023;DHT22;19390;51.460;5.710;2022-07-15T05:24:44;16.40;99.90
33023;DHT22;19390;51.460;5.710;2022-07-15T05:27:10;18.00;99.90
33023;DHT22;19390;51.460;5.710;2022-07-15T05:29:36;18.50;99.90
33023;DHT22;19390;51.460;5.710;2022-07-15T05:32:02;18.90;99.90
33023;DHT22;19390;51.460;5.710;2022-07-15T05:34:28;18.60;99.90
33023;DHT22;19390;51.460;5.710;2022-07-15T05:36:54;20.50;99.90
33023;DHT22;19390;51.460;5.710;2022-07-15T05:39:19;23.00;99.90
33023;DHT22;19390;51.460;5.710;2022-07-15T05:41:45;23.10;99.90
33023;DHT22;19390;51.460;5.710;2022-07-15T05:44:11;23.30;99.90
33023;DHT22;19390;51.460;5.710;2022-07-15T05:46:36;24.10;99.90
33023;DHT22;19390;51.460;5.710;2022-07-15T05:49:02;24.10;99.90
33023;DHT22;19390;51.460;5.710;2022-07-15T05:51:28;24.50;99.90
33023;DHT22;19390;51.460;5.710;2022-07-15T05:53:54;24.00;99.90
33023;DHT22;19390;51.460;5.710;2022-07-15T05:56:20;24.90;99.90
33023;DHT22;19390;51.460;5.710;2022-07-15T05:58:45;25.40;99.90
33023;DHT22;19390;51.460;5.710;2022-07-15T06:01:11;24.90;99.90
33023;DHT22;19390;51.460;5.710;2022-07-15T06:03:37;25.00;99.90
33023;DHT22;19390;51.460;5.710;2022-07-15T06:06:03;24.30;99.90
33023;DHT22;19390;51.460;5.710;2022-07-15T06:08:30;24.20;99.90
33023;DHT22;19390;51.460;5.710;2022-07-15T06:10:55;25.50;99.90
33023;DHT22;19390;51.460;5.710;2022-07-15T06:13:22;24.10;99.90
33023;DHT22;19390;51.460;5.710;2022-07-15T06:15:48;23.00;99.90
33023;DHT22;19390;51.460;5.710;2022-07-15T06:18:13;24.30;99.90
33023;DHT22;19390;51.460;5.710;2022-07-15T06:20:39;24.40;99.90
33023;DHT22;19390;51.460;5.710;2022-07-15T06:23:05;24.30;99.90
33023;DHT22;19390;51.460;5.710;2022-07-15T06:25:30;24.60;99.90
33023;DHT22;19390;51.460;5.710;2022-07-15T06:27:56;25.50;99.90
33023;DHT22;19390;51.460;5.710;2022-07-15T06:30:21;25.50;99.90
33023;DHT22;19390;51.460;5.710;2022-07-15T06:32:47;25.70;99.90
33023;DHT22;19390;51.460;5.710;2022-07-15T06:35:12;26.30;99.90
33023;DHT22;19390;51.460;5.710;2022-07-15T06:37:38;25.70;99.90
33023;DHT22;19390;51.460;5.710;2022-07-15T06:40:04;26.10;99.90
33023;DHT22;19390;51.460;5.710;2022-07-15T06:42:30;28.00;99.90
33023;DHT22;19390;51.460;5.710;2022-07-15T06:44:56;28.30;99.90
33023;DHT22;19390;51.460;5.710;2022-07-15T06:47:21;28.20;99.90
33023;DHT22;19390;51.460;5.710;2022-07-15T06:49:47;28.00;99.90
33023;DHT22;19390;51.460;5.710;2022-07-15T06:52:14;28.00;99.90
33023;DHT22;19390;51.460;5.710;2022-07-15T06:54:40;28.70;99.90
33023;DHT22;19390;51.460;5.710;2022-07-15T06:57:05;28.40;99.90
33023;DHT22;19390;51.460;5.710;2022-07-15T06:59:31;28.10;99.90
33023;DHT22;19390;51.460;5.710;2022-07-15T07:01:56;28.60;99.90
33023;DHT22;19390;51.460;5.710;2022-07-15T07:04:22;28.80;99.90
33023;DHT22;19390;51.460;5.710;2022-07-15T07:06:48;28.30;99.90
33023;DHT22;19390;51.460;5.710;2022-07-15T07:09:13;28.50;99.90
33023;DHT22;19390;51.460;5.710;2022-07-15T07:11:39;28.80;99.90
33023;DHT22;19390;51.460;5.710;2022-07-15T07:14:05;28.90;99.90
33023;DHT22;19390;51.460;5.710;2022-07-15T07:16:31;28.20;99.90
33023;DHT22;19390;51.460;5.710;2022-07-15T07:18:57;27.80;99.90
33023;DHT22;19390;51.460;5.710;2022-07-15T07:21:23;28.40;99.90
33023;DHT22;19390;51.460;5.710;2022-07-15T07:23:48;29.90;99.90
33023;DHT22;19390;51.460;5.710;2022-07-15T07:26:15;29.20;99.90
33023;DHT22;19390;51.460;5.710;2022-07-15T07:28:41;29.90;99.90
33023;DHT22;19390;51.460;5.710;2022-07-15T07:31:08;30.00;99.90
33023;DHT22;19390;51.460;5.710;2022-07-15T07:33:34;30.80;99.90
33023;DHT22;19390;51.460;5.710;2022-07-15T07:35:59;30.00;99.90
33023;DHT22;19390;51.460;5.710;2022-07-15T07:38:25;30.30;99.90
33023;DHT22;19390;51.460;5.710;2022-07-15T07:40:51;31.40;99.90
33023;DHT22;19390;51.460;5.710;2022-07-15T07:43:17;30.70;99.90
33023;DHT22;19390;51.460;5.710;2022-07-15T07:45:44;30.40;99.90
33023;DHT22;19390;51.460;5.710;2022-07-15T07:48:10;30.50;99.90
33023;DHT22;19390;51.460;5.710;2022-07-15T07:50:37;31.50;99.90
33023;DHT22;19390;51.460;5.710;2022-07-15T07:53:03;29.80;99.90
33023;DHT22;19390;51.460;5.710;2022-07-15T07:55:29;29.90;99.90
33023;DHT22;19390;51.460;5.710;2022-07-15T07:57:56;30.20;99.90
33023;DHT22;19390;51.460;5.710;2022-07-15T08:00:23;31.10;99.90
33023;DHT22;19390;51.460;5.710;2022-07-15T08:02:52;32.10;99.50
33023;DHT22;19390;51.460;5.710;2022-07-15T08:05:18;33.00;98.60
33023;DHT22;19390;51.460;5.710;2022-07-15T08:07:44;32.40;97.70
33023;DHT22;19390;51.460;5.710;2022-07-15T08:10:11;32.00;98.10
33023;DHT22;19390;51.460;5.710;2022-07-15T08:12:37;32.40;98.00
33023;DHT22;19390;51.460;5.710;2022-07-15T08:15:08;31.20;97.90
33023;DHT22;19390;51.460;5.710;2022-07-15T08:17:36;32.80;97.00
33023;DHT22;19390;51.460;5.710;2022-07-15T08:20:04;31.60;97.80
33023;DHT22;19390;51.460;5.710;2022-07-15T08:22:30;30.80;97.80
33023;DHT22;19390;51.460;5.710;2022-07-15T08:24:56;31.90;98.20
33023;DHT22;19390;51.460;5.710;2022-07-15T08:27:22;31.60;96.90
33023;DHT22;19390;51.460;5.710;2022-07-15T08:29:47;25.70;99.20
33023;DHT22;19390;51.460;5.710;2022-07-15T08:32:13;25.00;99.90
33023;DHT22;19390;51.460;5.710;2022-07-15T08:34:39;29.80;99.90
33023;DHT22;19390;51.460;5.710;2022-07-15T08:37:07;29.80;98.80
33023;DHT22;19390;51.460;5.710;2022-07-15T08:39:35;31.30;96.30
33023;DHT22;19390;51.460;5.710;2022-07-15T08:42:03;32.00;95.20
33023;DHT22;19390;51.460;5.710;2022-07-15T08:44:29;30.60;96.70
33023;DHT22;19390;51.460;5.710;2022-07-15T08:47:00;32.60;96.10
33023;DHT22;19390;51.460;5.710;2022-07-15T08:49:29;32.80;95.80
33023;DHT22;19390;51.460;5.710;2022-07-15T08:51:57;32.60;96.10
33023;DHT22;19390;51.460;5.710;2022-07-15T08:54:24;34.10;95.60
33023;DHT22;19390;51.460;5.710;2022-07-15T08:56:49;33.40;94.40
33023;DHT22;19390;51.460;5.710;2022-07-15T08:59:15;32.80;93.60
33023;DHT22;19390;51.460;5.710;2022-07-15T09:01:44;31.40;94.00
33023;DHT22;19390;51.460;5.710;2022-07-15T09:04:10;30.70;94.20
33023;DHT22;19390;51.460;5.710;2022-07-15T09:06:43;28.20;93.80
33023;DHT22;19390;51.460;5.710;2022-07-15T09:09:31;26.50;95.60
33023;DHT22;19390;51.460;5.710;2022-07-15T09:12:07;28.20;94.40
33023;DHT22;19390;51.460;5.710;2022-07-15T09:14:35;27.30;94.70
33023;DHT22;19390;51.460;5.710;2022-07-15T09:19:55;33.20;93.00
33023;DHT22;19390;51.460;5.710;2022-07-15T09:22:21;31.70;93.30
33023;DHT22;19390;51.460;5.710;2022-07-15T09:24:50;32.50;93.40
33023;DHT22;19390;51.460;5.710;2022-07-15T09:27:30;31.10;94.00
33023;DHT22;19390;51.460;5.710;2022-07-15T09:30:12;32.20;94.10
33023;DHT22;19390;51.460;5.710;2022-07-15T09:32:59;33.00;93.70
33023;DHT22;19390;51.460;5.710;2022-07-15T09:35:43;32.30;94.10
33023;DHT22;19390;51.460;5.710;2022-07-15T09:38:35;34.70;92.90
33023;DHT22;19390;51.460;5.710;2022-07-15T09:41:01;34.20;92.50
33023;DHT22;19390;51.460;5.710;2022-07-15T09:43:28;32.20;92.10
33023;DHT22;19390;51.460;5.710;2022-07-15T09:45:58;28.90;93.60
33023;DHT22;19390;51.460;5.710;2022-07-15T09:48:25;31.10;95.10
33023;DHT22;19390;51.460;5.710;2022-07-15T09:50:57;31.60;93.30
33023;DHT22;19390;51.460;5.710;2022-07-15T09:53:24;27.30;94.70
33023;DHT22;19390;51.460;5.710;2022-07-15T09:55:51;25.30;97.30
33023;DHT22;19390;51.460;5.710;2022-07-15T09:58:18;26.00;96.10
33023;DHT22;19390;51.460;5.710;2022-07-15T10:00:45;27.20;97.00
33023;DHT22;19390;51.460;5.710;2022-07-15T10:03:11;29.50;95.40
33023;DHT22;19390;51.460;5.710;2022-07-15T10:05:39;30.90;93.10
33023;DHT22;19390;51.460;5.710;2022-07-15T10:08:06;31.00;93.70
33023;DHT22;19390;51.460;5.710;2022-07-15T10:10:35;33.40;91.80
33023;DHT22;19390;51.460;5.710;2022-07-15T10:13:11;32.90;90.50
33023;DHT22;19390;51.460;5.710;2022-07-15T10:16:13;32.90;89.40
33023;DHT22;19390;51.460;5.710;2022-07-15T10:27:43;33.30;88.60
33023;DHT22;19390;51.460;5.710;2022-07-15T10:30:10;28.20;91.20
33023;DHT22;19390;51.460;5.710;2022-07-15T10:35:44;32.80;91.10
33023;DHT22;19390;51.460;5.710;2022-07-15T10:38:33;31.30;89.80
33023;DHT22;19390;51.460;5.710;2022-07-15T10:43:49;33.20;90.50
33023;DHT22;19390;51.460;5.710;2022-07-15T10:48:44;28.50;92.00
33023;DHT22;19390;51.460;5.710;2022-07-15T10:51:10;28.60;92.90
33023;DHT22;19390;51.460;5.710;2022-07-15T10:53:46;32.60;90.90
33023;DHT22;19390;51.460;5.710;2022-07-15T10:56:37;33.50;87.80
33023;DHT22;19390;51.460;5.710;2022-07-15T11:01:40;32.70;86.30
33023;DHT22;19390;51.460;5.710;2022-07-15T11:04:20;32.60;86.80
33023;DHT22;19390;51.460;5.710;2022-07-15T11:09:49;31.50;87.10
33023;DHT22;19390;51.460;5.710;2022-07-15T11:13:02;30.30;90.20
33023;DHT22;19390;51.460;5.710;2022-07-15T11:15:13;30.90;90.00
33023;DHT22;19390;51.460;5.710;2022-07-15T11:17:42;31.50;86.90
33023;DHT22;19390;51.460;5.710;2022-07-15T11:20:10;31.60;89.30
33023;DHT22;19390;51.460;5.710;2022-07-15T11:22:40;32.80;86.90
33023;DHT22;19390;51.460;5.710;2022-07-15T11:25:07;33.30;86.70
33023;DHT22;19390;51.460;5.710;2022-07-15T11:27:41;29.60;88.20
33023;DHT22;19390;51.460;5.710;2022-07-15T11:30:07;29.60;90.60
33023;DHT22;19390;51.460;5.710;2022-07-15T11:32:33;30.40;90.30
33023;DHT22;19390;51.460;5.710;2022-07-15T11:35:00;30.90;90.00
33023;DHT22;19390;51.460;5.710;2022-07-15T11:37:36;28.50;90.40
33023;DHT22;19390;51.460;5.710;2022-07-15T11:40:07;30.40;90.70
33023;DHT22;19390;51.460;5.710;2022-07-15T11:42:33;32.60;90.00
33023;DHT22;19390;51.460;5.710;2022-07-15T11:45:32;32.30;88.30
33023;DHT22;19390;51.460;5.710;2022-07-15T11:47:58;29.90;90.50
33023;DHT22;19390;51.460;5.710;2022-07-15T11:50:23;30.30;90.00
33023;DHT22;19390;51.460;5.710;2022-07-15T11:52:49;31.60;88.30
33023;DHT22;19390;51.460;5.710;2022-07-15T11:55:19;29.40;90.00
33023;DHT22;19390;51.460;5.710;2022-07-15T11:57:46;29.60;90.30
33023;DHT22;19390;51.460;5.710;2022-07-15T12:00:13;30.00;90.50
33023;DHT22;19390;51.460;5.710;2022-07-15T12:02:39;30.40;91.30
33023;DHT22;19390;51.460;5.710;2022-07-15T12:05:06;31.40;89.10
33023;DHT22;19390;51.460;5.710;2022-07-15T12:07:44;32.30;86.10
33023;DHT22;19390;51.460;5.710;2022-07-15T12:10:11;31.70;87.00
33023;DHT22;19390;51.460;5.710;2022-07-15T12:12:56;30.30;89.50
33023;DHT22;19390;51.460;5.710;2022-07-15T12:15:30;28.50;89.50
33023;DHT22;19390;51.460;5.710;2022-07-15T12:17:56;28.00;91.70
33023;DHT22;19390;51.460;5.710;2022-07-15T12:20:22;29.20;90.90
33023;DHT22;19390;51.460;5.710;2022-07-15T12:23:06;30.10;90.40
33023;DHT22;19390;51.460;5.710;2022-07-15T12:25:32;30.60;89.10
33023;DHT22;19390;51.460;5.710;2022-07-15T12:27:58;30.80;90.30
33023;DHT22;19390;51.460;5.710;2022-07-15T12:30:34;30.80;88.60
33023;DHT22;19390;51.460;5.710;2022-07-15T12:33:14;30.10;90.00
33023;DHT22;19390;51.460;5.710;2022-07-15T12:35:39;29.80;89.10
33023;DHT22;19390;51.460;5.710;2022-07-15T12:38:05;28.90;89.20
33023;DHT22;19390;51.460;5.710;2022-07-15T12:40:30;28.30;90.90
33023;DHT22;19390;51.460;5.710;2022-07-15T12:42:56;27.50;92.00
33023;DHT22;19390;51.460;5.710;2022-07-15T12:45:24;27.00;91.90
33023;DHT22;19390;51.460;5.710;2022-07-15T12:48:03;26.90;92.10
33023;DHT22;19390;51.460;5.710;2022-07-15T12:53:15;27.30;92.30
33023;DHT22;19390;51.460;5.710;2022-07-15T12:55:43;27.60;91.70
33023;DHT22;19390;51.460;5.710;2022-07-15T12:58:12;26.90;92.30
33023;DHT22;19390;51.460;5.710;2022-07-15T13:00:40;26.80;92.20
33023;DHT22;19390;51.460;5.710;2022-07-15T13:03:19;26.50;92.50
33023;DHT22;19390;51.460;5.710;2022-07-15T13:05:47;26.90;92.60
33023;DHT22;19390;51.460;5.710;2022-07-15T13:08:24;26.00;93.30
33023;DHT22;19390;51.460;5.710;2022-07-15T13:10:52;26.10;93.40
33023;DHT22;19390;51.460;5.710;2022-07-15T13:13:19;26.10;92.90
33023;DHT22;19390;51.460;5.710;2022-07-15T13:15:46;25.50;93.10
33023;DHT22;19390;51.460;5.710;2022-07-15T13:18:13;25.80;93.40
33023;DHT22;19390;51.460;5.710;2022-07-15T13:20:39;25.80;92.90
33023;DHT22;19390;51.460;5.710;2022-07-15T13:23:05;25.70;92.70
33023;DHT22;19390;51.460;5.710;2022-07-15T13:25:31;25.90;93.40
33023;DHT22;19390;51.460;5.710;2022-07-15T13:27:57;25.40;93.80
33023;DHT22;19390;51.460;5.710;2022-07-15T13:30:24;25.40;94.20
33023;DHT22;19390;51.460;5.710;2022-07-15T13:32:50;25.70;94.20
33023;DHT22;19390;51.460;5.710;2022-07-15T13:35:16;27.40;94.40
33023;DHT22;19390;51.460;5.710;2022-07-15T13:37:42;28.30;92.40
33023;DHT22;19390;51.460;5.710;2022-07-15T13:40:10;29.40;92.30
33023;DHT22;19390;51.460;5.710;2022-07-15T13:42:36;28.90;92.10
33023;DHT22;19390;51.460;5.710;2022-07-15T13:45:04;28.10;93.10
33023;DHT22;19390;51.460;5.710;2022-07-15T13:47:30;27.60;92.80
33023;DHT22;19390;51.460;5.710;2022-07-15T13:49:56;26.80;92.90
33023;DHT22;19390;51.460;5.710;2022-07-15T13:52:45;26.70;93.10
33023;DHT22;19390;51.460;5.710;2022-07-15T13:55:12;27.10;93.90
33023;DHT22;19390;51.460;5.710;2022-07-15T13:57:38;27.30;92.70
33023;DHT22;19390;51.460;5.710;2022-07-15T14:00:06;26.10;94.10
33023;DHT22;19390;51.460;5.710;2022-07-15T14:02:32;27.00;93.30
33023;DHT22;19390;51.460;5.710;2022-07-15T14:04:58;26.70;93.10
33023;DHT22;19390;51.460;5.710;2022-07-15T14:07:23;26.60;93.70
33023;DHT22;19390;51.460;5.710;2022-07-15T14:09:49;26.40;94.00
33023;DHT22;19390;51.460;5.710;2022-07-15T14:12:15;27.00;94.30
33023;DHT22;19390;51.460;5.710;2022-07-15T14:14:40;26.80;94.10
33023;DHT22;19390;51.460;5.710;2022-07-15T14:17:06;26.30;94.00
33023;DHT22;19390;51.460;5.710;2022-07-15T14:19:32;26.00;94.20
33023;DHT22;19390;51.460;5.710;2022-07-15T14:21:57;25.20;95.40
33023;DHT22;19390;51.460;5.710;2022-07-15T14:24:23;24.80;95.70
33023;DHT22;19390;51.460;5.710;2022-07-15T14:26:48;25.00;95.70
33023;DHT22;19390;51.460;5.710;2022-07-15T14:29:14;25.00;95.50
33023;DHT22;19390;51.460;5.710;2022-07-15T14:31:40;24.80;95.50
33023;DHT22;19390;51.460;5.710;2022-07-15T14:34:05;24.50;95.90
33023;DHT22;19390;51.460;5.710;2022-07-15T14:36:31;25.00;95.80
33023;DHT22;19390;51.460;5.710;2022-07-15T14:38:57;24.50;96.20
33023;DHT22;19390;51.460;5.710;2022-07-15T14:41:23;24.40;96.90
33023;DHT22;19390;51.460;5.710;2022-07-15T14:43:48;25.20;96.20
33023;DHT22;19390;51.460;5.710;2022-07-15T14:46:14;26.80;95.70
33023;DHT22;19390;51.460;5.710;2022-07-15T14:48:39;26.30;94.90
33023;DHT22;19390;51.460;5.710;2022-07-15T14:51:05;26.10;95.20
33023;DHT22;19390;51.460;5.710;2022-07-15T14:53:30;26.40;95.30
33023;DHT22;19390;51.460;5.710;2022-07-15T14:55:56;27.10;94.50
33023;DHT22;19390;51.460;5.710;2022-07-15T14:58:23;27.00;94.60
33023;DHT22;19390;51.460;5.710;2022-07-15T15:00:48;26.10;94.40
33023;DHT22;19390;51.460;5.710;2022-07-15T15:03:15;25.90;95.20
33023;DHT22;19390;51.460;5.710;2022-07-15T15:05:42;25.50;95.50
33023;DHT22;19390;51.460;5.710;2022-07-15T15:08:08;26.10;96.30
33023;DHT22;19390;51.460;5.710;2022-07-15T15:10:34;25.10;97.30
33023;DHT22;19390;51.460;5.710;2022-07-15T15:12:59;25.00;96.80
33023;DHT22;19390;51.460;5.710;2022-07-15T15:15:25;24.90;97.30
33023;DHT22;19390;51.460;5.710;2022-07-15T15:17:51;24.70;97.40
33023;DHT22;19390;51.460;5.710;2022-07-15T15:20:17;25.10;97.70
33023;DHT22;19390;51.460;5.710;2022-07-15T15:22:43;25.20;97.90
33023;DHT22;19390;51.460;5.710;2022-07-15T15:25:09;26.10;97.90
33023;DHT22;19390;51.460;5.710;2022-07-15T15:27:35;26.10;97.40
33023;DHT22;19390;51.460;5.710;2022-07-15T15:30:02;25.90;97.20
33023;DHT22;19390;51.460;5.710;2022-07-15T15:32:29;25.00;97.80
33023;DHT22;19390;51.460;5.710;2022-07-15T15:34:55;24.70;98.40
33023;DHT22;19390;51.460;5.710;2022-07-15T15:37:20;24.90;98.60
33023;DHT22;19390;51.460;5.710;2022-07-15T15:39:46;24.60;98.00
33023;DHT22;19390;51.460;5.710;2022-07-15T15:42:12;24.70;98.60
33023;DHT22;19390;51.460;5.710;2022-07-15T15:44:38;24.30;98.50
33023;DHT22;19390;51.460;5.710;2022-07-15T15:47:04;24.70;99.20
33023;DHT22;19390;51.460;5.710;2022-07-15T15:49:30;24.80;99.90
33023;DHT22;19390;51.460;5.710;2022-07-15T15:51:56;25.20;99.30
33023;DHT22;19390;51.460;5.710;2022-07-15T15:54:22;25.10;99.10
33023;DHT22;19390;51.460;5.710;2022-07-15T15:56:48;24.90;99.00
33023;DHT22;19390;51.460;5.710;2022-07-15T15:59:14;25.40;99.50